sensor_id;sensor_type;location;lat;lon;timestamp;P1;durP1;ratioP1;P2;durP2;ratioP2
82022;SDS011;71575;49.908;18.356;2023-12-07T00:04:21;80.20;;;32.15;;
82022;SDS011;71575;49.908;18.356;2023-12-07T00:07:22;79.28;;;32.95;;
82022;SDS011;71575;49.908;18.356;2023-12-07T00:13:23;77.85;;;31.33;;
82022;SDS011;71575;49.908;18.356;2023-12-07T00:19:24;66.80;;;27.50;;
82022;SDS011;71575;49.908;18.356;2023-12-07T00:22:25;80.30;;;31.20;;
82022;SDS011;71575;49.908;18.356;2023-12-07T00:25:26;78.20;;;34.47;;
82022;SDS011;71575;49.908;18.356;2023-12-07T00:31:28;79.88;;;32.63;;
82022;SDS011;71575;49.908;18.356;2023-12-07T00:37:29;86.13;;;32.58;;
82022;SDS011;71575;49.908;18.356;2023-12-07T00:40:29;74.03;;;31.80;;
82022;SDS011;71575;49.908;18.356;2023-12-07T00:43:30;84.68;;;36.78;;
82022;SDS011;71575;49.908;18.356;2023-12-07T00:49:31;82.70;;;34.97;;
82022;SDS011;71575;49.908;18.356;2023-12-07T00:52:32;80.95;;;31.52;;
82022;SDS011;71575;49.908;18.356;2023-12-07T00:58:33;80.25;;;33.90;;
82022;SDS011;71575;49.908;18.356;2023-12-07T01:04:34;70.88;;;29.20;;
82022;SDS011;71575;49.908;18.356;2023-12-07T01:10:35;76.65;;;31.27;;
82022;SDS011;71575;49.908;18.356;2023-12-07T01:16:37;79.13;;;31.92;;
82022;SDS011;71575;49.908;18.356;2023-12-07T01:22:39;80.20;;;32.33;;
82022;SDS011;71575;49.908;18.356;2023-12-07T01:25:40;76.75;;;32.70;;
82022;SDS011;71575;49.908;18.356;2023-12-07T01:28:41;77.32;;;32.60;;
82022;SDS011;71575;49.908;18.356;2023-12-07T01:31:42;80.55;;;34.17;;
82022;SDS011;71575;49.908;18.356;2023-12-07T01:34:42;79.47;;;33.28;;
82022;SDS011;71575;49.908;18.356;2023-12-07T01:40:43;78.93;;;31.25;;
82022;SDS011;71575;49.908;18.356;2023-12-07T01:46:45;81.50;;;31.90;;
82022;SDS011;71575;49.908;18.356;2023-12-07T01:52:47;84.95;;;33.17;;
82022;SDS011;71575;49.908;18.356;2023-12-07T01:55:48;82.32;;;32.75;;
82022;SDS011;71575;49.908;18.356;2023-12-07T01:58:49;81.32;;;33.20;;
82022;SDS011;71575;49.908;18.356;2023-12-07T02:04:51;73.57;;;31.63;;
82022;SDS011;71575;49.908;18.356;2023-12-07T02:10:52;79.50;;;32.47;;
82022;SDS011;71575;49.908;18.356;2023-12-07T02:13:53;83.55;;;31.60;;
82022;SDS011;71575;49.908;18.356;2023-12-07T02:20:03;79.10;;;31.77;;
82022;SDS011;71575;49.908;18.356;2023-12-07T02:23:08;86.10;;;33.15;;
82022;SDS011;71575;49.908;18.356;2023-12-07T02:29:47;80.82;;;32.35;;
82022;SDS011;71575;49.908;18.356;2023-12-07T02:35:48;76.68;;;32.63;;
82022;SDS011;71575;49.908;18.356;2023-12-07T02:41:50;73.43;;;30.63;;
82022;SDS011;71575;49.908;18.356;2023-12-07T02:47:52;73.85;;;32.83;;
82022;SDS011;71575;49.908;18.356;2023-12-07T02:50:53;63.42;;;28.42;;
82022;SDS011;71575;49.908;18.356;2023-12-07T02:56:54;69.20;;;29.95;;
82022;SDS011;71575;49.908;18.356;2023-12-07T02:59:55;71.68;;;29.48;;
82022;SDS011;71575;49.908;18.356;2023-12-07T03:02:56;74.35;;;30.38;;
82022;SDS011;71575;49.908;18.356;2023-12-07T03:05:56;79.20;;;32.60;;
82022;SDS011;71575;49.908;18.356;2023-12-07T03:08:57;67.50;;;30.17;;
82022;SDS011;71575;49.908;18.356;2023-12-07T03:11:58;82.22;;;31.58;;
82022;SDS011;71575;49.908;18.356;2023-12-07T03:17:59;66.35;;;28.83;;
82022;SDS011;71575;49.908;18.356;2023-12-07T03:21:01;77.65;;;30.02;;
82022;SDS011;71575;49.908;18.356;2023-12-07T03:24:02;66.15;;;29.55;;
82022;SDS011;71575;49.908;18.356;2023-12-07T03:27:03;71.05;;;29.55;;
82022;SDS011;71575;49.908;18.356;2023-12-07T03:30:05;68.10;;;29.13;;
82022;SDS011;71575;49.908;18.356;2023-12-07T03:33:06;65.25;;;28.88;;
82022;SDS011;71575;49.908;18.356;2023-12-07T03:39:07;65.78;;;28.73;;
82022;SDS011;71575;49.908;18.356;2023-12-07T03:45:09;67.00;;;26.95;;
82022;SDS011;71575;49.908;18.356;2023-12-07T03:51:12;58.00;;;24.33;;
82022;SDS011;71575;49.908;18.356;2023-12-07T03:54:13;71.60;;;26.52;;
82022;SDS011;71575;49.908;18.356;2023-12-07T03:57:14;59.15;;;26.80;;
82022;SDS011;71575;49.908;18.356;2023-12-07T04:00:14;69.97;;;30.05;;
82022;SDS011;71575;49.908;18.356;2023-12-07T04:06:16;71.50;;;30.63;;
82022;SDS011;71575;49.908;18.356;2023-12-07T04:12:17;69.03;;;28.20;;
82022;SDS011;71575;49.908;18.356;2023-12-07T04:18:18;67.50;;;27.70;;
82022;SDS011;71575;49.908;18.356;2023-12-07T04:24:19;69.43;;;26.98;;
82022;SDS011;71575;49.908;18.356;2023-12-07T04:30:21;66.38;;;26.40;;
82022;SDS011;71575;49.908;18.356;2023-12-07T04:36:22;65.00;;;27.45;;
82022;SDS011;71575;49.908;18.356;2023-12-07T04:39:23;71.32;;;29.13;;
82022;SDS011;71575;49.908;18.356;2023-12-07T04:45:24;74.50;;;30.20;;
82022;SDS011;71575;49.908;18.356;2023-12-07T04:51:25;70.38;;;29.88;;
82022;SDS011;71575;49.908;18.356;2023-12-07T04:57:26;68.65;;;29.30;;
82022;SDS011;71575;49.908;18.356;2023-12-07T05:03:28;71.65;;;31.70;;
82022;SDS011;71575;49.908;18.356;2023-12-07T05:06:28;80.80;;;35.13;;
82022;SDS011;71575;49.908;18.356;2023-12-07T05:12:29;76.53;;;34.35;;
82022;SDS011;71575;49.908;18.356;2023-12-07T05:15:30;83.03;;;34.25;;
82022;SDS011;71575;49.908;18.356;2023-12-07T05:18:31;79.20;;;37.97;;
82022;SDS011;71575;49.908;18.356;2023-12-07T05:21:32;85.03;;;35.08;;
82022;SDS011;71575;49.908;18.356;2023-12-07T05:24:35;79.47;;;35.30;;
82022;SDS011;71575;49.908;18.356;2023-12-07T05:27:36;84.47;;;37.55;;
82022;SDS011;71575;49.908;18.356;2023-12-07T05:30:36;84.95;;;35.42;;
82022;SDS011;71575;49.908;18.356;2023-12-07T05:33:37;78.53;;;32.80;;
82022;SDS011;71575;49.908;18.356;2023-12-07T05:36:38;81.50;;;34.28;;
82022;SDS011;71575;49.908;18.356;2023-12-07T05:39:38;77.38;;;33.00;;
82022;SDS011;71575;49.908;18.356;2023-12-07T05:42:39;73.18;;;32.33;;
82022;SDS011;71575;49.908;18.356;2023-12-07T05:45:40;67.75;;;27.40;;
82022;SDS011;71575;49.908;18.356;2023-12-07T05:48:40;69.88;;;29.95;;
82022;SDS011;71575;49.908;18.356;2023-12-07T05:51:41;73.93;;;33.08;;
82022;SDS011;71575;49.908;18.356;2023-12-07T05:54:42;81.65;;;33.67;;
82022;SDS011;71575;49.908;18.356;2023-12-07T05:57:44;76.15;;;33.60;;
82022;SDS011;71575;49.908;18.356;2023-12-07T06:00:45;80.75;;;33.85;;
82022;SDS011;71575;49.908;18.356;2023-12-07T06:06:46;71.20;;;31.65;;
82022;SDS011;71575;49.908;18.356;2023-12-07T06:09:47;75.95;;;34.13;;
82022;SDS011;71575;49.908;18.356;2023-12-07T06:12:48;77.28;;;33.55;;
82022;SDS011;71575;49.908;18.356;2023-12-07T06:15:49;76.80;;;34.15;;
82022;SDS011;71575;49.908;18.356;2023-12-07T06:21:50;72.93;;;33.75;;
82022;SDS011;71575;49.908;18.356;2023-12-07T06:24:50;84.25;;;34.67;;
82022;SDS011;71575;49.908;18.356;2023-12-07T06:30:51;83.35;;;33.88;;
82022;SDS011;71575;49.908;18.356;2023-12-07T06:36:53;79.97;;;32.83;;
82022;SDS011;71575;49.908;18.356;2023-12-07T06:39:53;83.57;;;37.33;;
82022;SDS011;71575;49.908;18.356;2023-12-07T06:45:55;78.30;;;36.80;;
82022;SDS011;71575;49.908;18.356;2023-12-07T06:51:56;80.32;;;35.05;;
82022;SDS011;71575;49.908;18.356;2023-12-07T06:54:56;73.40;;;35.70;;
82022;SDS011;71575;49.908;18.356;2023-12-07T07:00:58;82.78;;;37.20;;
82022;SDS011;71575;49.908;18.356;2023-12-07T07:03:58;85.82;;;38.80;;
82022;SDS011;71575;49.908;18.356;2023-12-07T07:10:00;86.88;;;36.85;;
82022;SDS011;71575;49.908;18.356;2023-12-07T07:13:01;94.38;;;40.78;;
82022;SDS011;71575;49.908;18.356;2023-12-07T07:16:02;88.00;;;38.75;;
82022;SDS011;71575;49.908;18.356;2023-12-07T07:22:06;98.03;;;40.45;;
82022;SDS011;71575;49.908;18.356;2023-12-07T07:28:08;88.22;;;38.60;;
82022;SDS011;71575;49.908;18.356;2023-12-07T07:31:08;86.10;;;39.33;;
82022;SDS011;71575;49.908;18.356;2023-12-07T07:34:09;89.30;;;39.85;;
82022;SDS011;71575;49.908;18.356;2023-12-07T07:37:09;84.43;;;38.17;;
82022;SDS011;71575;49.908;18.356;2023-12-07T07:40:10;78.20;;;35.10;;
82022;SDS011;71575;49.908;18.356;2023-12-07T07:43:11;87.70;;;38.05;;
82022;SDS011;71575;49.908;18.356;2023-12-07T07:46:12;92.85;;;39.63;;
82022;SDS011;71575;49.908;18.356;2023-12-07T07:49:13;90.20;;;39.00;;
82022;SDS011;71575;49.908;18.356;2023-12-07T07:52:14;90.20;;;40.85;;
82022;SDS011;71575;49.908;18.356;2023-12-07T07:55:15;83.00;;;38.38;;
82022;SDS011;71575;49.908;18.356;2023-12-07T07:58:16;86.47;;;38.83;;
82022;SDS011;71575;49.908;18.356;2023-12-07T08:01:16;88.28;;;39.35;;
82022;SDS011;71575;49.908;18.356;2023-12-07T08:04:17;79.93;;;37.17;;
82022;SDS011;71575;49.908;18.356;2023-12-07T08:07:18;88.35;;;37.28;;
82022;SDS011;71575;49.908;18.356;2023-12-07T08:10:21;85.00;;;38.88;;
82022;SDS011;71575;49.908;18.356;2023-12-07T08:13:22;88.10;;;38.03;;
82022;SDS011;71575;49.908;18.356;2023-12-07T08:16:23;89.85;;;40.28;;
82022;SDS011;71575;49.908;18.356;2023-12-07T08:19:23;78.60;;;38.00;;
82022;SDS011;71575;49.908;18.356;2023-12-07T08:22:24;84.00;;;37.78;;
82022;SDS011;71575;49.908;18.356;2023-12-07T08:25:25;75.30;;;36.08;;
82022;SDS011;71575;49.908;18.356;2023-12-07T08:28:26;82.20;;;38.75;;
82022;SDS011;71575;49.908;18.356;2023-12-07T08:31:26;79.78;;;38.15;;
82022;SDS011;71575;49.908;18.356;2023-12-07T08:34:27;82.57;;;37.15;;
82022;SDS011;71575;49.908;18.356;2023-12-07T08:37:29;88.55;;;37.38;;
82022;SDS011;71575;49.908;18.356;2023-12-07T08:40:30;85.47;;;36.97;;
82022;SDS011;71575;49.908;18.356;2023-12-07T08:43:30;88.15;;;39.92;;
82022;SDS011;71575;49.908;18.356;2023-12-07T08:46:31;89.28;;;40.92;;
82022;SDS011;71575;49.908;18.356;2023-12-07T08:49:31;87.07;;;37.50;;
82022;SDS011;71575;49.908;18.356;2023-12-07T08:52:33;90.00;;;40.38;;
82022;SDS011;71575;49.908;18.356;2023-12-07T08:55:33;89.10;;;38.92;;
82022;SDS011;71575;49.908;18.356;2023-12-07T08:58:34;89.35;;;38.80;;
82022;SDS011;71575;49.908;18.356;2023-12-07T09:01:35;90.50;;;38.90;;
82022;SDS011;71575;49.908;18.356;2023-12-07T09:04:36;92.95;;;40.17;;
82022;SDS011;71575;49.908;18.356;2023-12-07T09:07:36;90.32;;;40.30;;
82022;SDS011;71575;49.908;18.356;2023-12-07T09:10:37;90.75;;;38.90;;
82022;SDS011;71575;49.908;18.356;2023-12-07T09:13:37;93.35;;;41.13;;
82022;SDS011;71575;49.908;18.356;2023-12-07T09:16:45;90.55;;;39.45;;
82022;SDS011;71575;49.908;18.356;2023-12-07T09:19:46;90.65;;;38.22;;
82022;SDS011;71575;49.908;18.356;2023-12-07T09:22:47;93.72;;;40.38;;
82022;SDS011;71575;49.908;18.356;2023-12-07T09:25:47;104.20;;;41.50;;
82022;SDS011;71575;49.908;18.356;2023-12-07T09:28:48;97.07;;;43.60;;
82022;SDS011;71575;49.908;18.356;2023-12-07T09:31:48;97.60;;;40.97;;
82022;SDS011;71575;49.908;18.356;2023-12-07T09:34:49;110.53;;;44.15;;
82022;SDS011;71575;49.908;18.356;2023-12-07T09:37:50;109.68;;;43.45;;
82022;SDS011;71575;49.908;18.356;2023-12-07T09:40:53;105.72;;;43.45;;
82022;SDS011;71575;49.908;18.356;2023-12-07T09:43:54;107.68;;;45.75;;
82022;SDS011;71575;49.908;18.356;2023-12-07T09:46:55;107.50;;;43.45;;
82022;SDS011;71575;49.908;18.356;2023-12-07T09:49:55;119.22;;;46.10;;
82022;SDS011;71575;49.908;18.356;2023-12-07T09:52:57;121.15;;;48.45;;
82022;SDS011;71575;49.908;18.356;2023-12-07T09:55:58;116.90;;;48.28;;
82022;SDS011;71575;49.908;18.356;2023-12-07T09:58:59;117.07;;;47.08;;
82022;SDS011;71575;49.908;18.356;2023-12-07T10:02:00;115.90;;;43.58;;
82022;SDS011;71575;49.908;18.356;2023-12-07T10:05:04;108.00;;;44.75;;
82022;SDS011;71575;49.908;18.356;2023-12-07T10:08:05;113.32;;;45.30;;
82022;SDS011;71575;49.908;18.356;2023-12-07T10:11:07;115.75;;;48.65;;
82022;SDS011;71575;49.908;18.356;2023-12-07T10:14:11;127.22;;;47.50;;
82022;SDS011;71575;49.908;18.356;2023-12-07T10:17:12;120.25;;;46.45;;
82022;SDS011;71575;49.908;18.356;2023-12-07T10:20:12;125.13;;;48.08;;
82022;SDS011;71575;49.908;18.356;2023-12-07T10:23:14;127.72;;;44.70;;
82022;SDS011;71575;49.908;18.356;2023-12-07T10:26:16;114.45;;;44.72;;
82022;SDS011;71575;49.908;18.356;2023-12-07T10:29:17;129.80;;;52.58;;
82022;SDS011;71575;49.908;18.356;2023-12-07T10:32:18;139.88;;;48.15;;
82022;SDS011;71575;49.908;18.356;2023-12-07T10:35:19;140.15;;;47.50;;
82022;SDS011;71575;49.908;18.356;2023-12-07T10:38:19;142.48;;;48.58;;
82022;SDS011;71575;49.908;18.356;2023-12-07T10:41:21;131.73;;;47.72;;
82022;SDS011;71575;49.908;18.356;2023-12-07T10:44:22;149.68;;;51.08;;
82022;SDS011;71575;49.908;18.356;2023-12-07T10:47:25;126.03;;;47.38;;
82022;SDS011;71575;49.908;18.356;2023-12-07T10:50:26;133.82;;;47.83;;
82022;SDS011;71575;49.908;18.356;2023-12-07T10:53:40;127.90;;;49.13;;
82022;SDS011;71575;49.908;18.356;2023-12-07T10:56:44;131.52;;;47.75;;
82022;SDS011;71575;49.908;18.356;2023-12-07T10:59:46;135.40;;;49.33;;
82022;SDS011;71575;49.908;18.356;2023-12-07T11:02:48;135.75;;;50.33;;
82022;SDS011;71575;49.908;18.356;2023-12-07T11:05:49;133.43;;;47.75;;
82022;SDS011;71575;49.908;18.356;2023-12-07T11:08:51;146.10;;;51.00;;
82022;SDS011;71575;49.908;18.356;2023-12-07T11:11:57;128.57;;;48.13;;
82022;SDS011;71575;49.908;18.356;2023-12-07T11:15:01;136.60;;;46.03;;
82022;SDS011;71575;49.908;18.356;2023-12-07T11:18:03;125.65;;;47.75;;
82022;SDS011;71575;49.908;18.356;2023-12-07T11:21:03;143.73;;;49.78;;
82022;SDS011;71575;49.908;18.356;2023-12-07T11:24:05;151.18;;;49.97;;
82022;SDS011;71575;49.908;18.356;2023-12-07T11:27:06;135.15;;;46.83;;
82022;SDS011;71575;49.908;18.356;2023-12-07T11:30:07;133.27;;;47.58;;
82022;SDS011;71575;49.908;18.356;2023-12-07T11:33:08;143.27;;;50.38;;
82022;SDS011;71575;49.908;18.356;2023-12-07T11:36:09;136.65;;;47.35;;
82022;SDS011;71575;49.908;18.356;2023-12-07T11:42:18;143.52;;;47.95;;
82022;SDS011;71575;49.908;18.356;2023-12-07T11:45:38;134.23;;;47.13;;
82022;SDS011;71575;49.908;18.356;2023-12-07T11:48:46;130.30;;;43.22;;
82022;SDS011;71575;49.908;18.356;2023-12-07T11:51:47;129.55;;;46.40;;
82022;SDS011;71575;49.908;18.356;2023-12-07T11:54:48;143.93;;;49.13;;
82022;SDS011;71575;49.908;18.356;2023-12-07T11:57:50;136.77;;;47.72;;
82022;SDS011;71575;49.908;18.356;2023-12-07T12:00:51;139.75;;;48.05;;
82022;SDS011;71575;49.908;18.356;2023-12-07T12:03:53;145.63;;;48.47;;
82022;SDS011;71575;49.908;18.356;2023-12-07T12:06:54;131.27;;;45.40;;
82022;SDS011;71575;49.908;18.356;2023-12-07T12:09:54;134.60;;;45.90;;
82022;SDS011;71575;49.908;18.356;2023-12-07T12:12:55;129.23;;;45.97;;
82022;SDS011;71575;49.908;18.356;2023-12-07T12:15:56;128.85;;;48.25;;
82022;SDS011;71575;49.908;18.356;2023-12-07T12:18:57;137.40;;;45.63;;
82022;SDS011;71575;49.908;18.356;2023-12-07T12:21:59;143.13;;;48.40;;
82022;SDS011;71575;49.908;18.356;2023-12-07T12:25:02;148.68;;;50.08;;
82022;SDS011;71575;49.908;18.356;2023-12-07T12:28:03;150.88;;;50.28;;
82022;SDS011;71575;49.908;18.356;2023-12-07T12:31:05;149.63;;;50.90;;
82022;SDS011;71575;49.908;18.356;2023-12-07T12:34:05;152.27;;;51.13;;
82022;SDS011;71575;49.908;18.356;2023-12-07T12:37:06;150.38;;;48.72;;
82022;SDS011;71575;49.908;18.356;2023-12-07T12:40:07;151.90;;;49.88;;
82022;SDS011;71575;49.908;18.356;2023-12-07T12:43:08;154.57;;;49.35;;
82022;SDS011;71575;49.908;18.356;2023-12-07T12:46:09;146.52;;;52.50;;
82022;SDS011;71575;49.908;18.356;2023-12-07T12:49:10;133.38;;;47.05;;
82022;SDS011;71575;49.908;18.356;2023-12-07T12:52:10;131.77;;;45.58;;
82022;SDS011;71575;49.908;18.356;2023-12-07T12:55:14;132.98;;;46.17;;
82022;SDS011;71575;49.908;18.356;2023-12-07T12:58:15;122.97;;;44.65;;
82022;SDS011;71575;49.908;18.356;2023-12-07T13:01:16;138.02;;;48.85;;
82022;SDS011;71575;49.908;18.356;2023-12-07T13:04:16;133.27;;;49.53;;
82022;SDS011;71575;49.908;18.356;2023-12-07T13:07:18;119.05;;;44.97;;
82022;SDS011;71575;49.908;18.356;2023-12-07T13:10:19;123.88;;;44.75;;
82022;SDS011;71575;49.908;18.356;2023-12-07T13:13:20;127.40;;;46.38;;
82022;SDS011;71575;49.908;18.356;2023-12-07T13:16:21;128.65;;;48.65;;
82022;SDS011;71575;49.908;18.356;2023-12-07T13:19:21;126.43;;;47.10;;
82022;SDS011;71575;49.908;18.356;2023-12-07T13:22:22;130.68;;;45.42;;
82022;SDS011;71575;49.908;18.356;2023-12-07T13:25:23;120.35;;;46.35;;
82022;SDS011;71575;49.908;18.356;2023-12-07T13:28:23;123.15;;;46.03;;
82022;SDS011;71575;49.908;18.356;2023-12-07T13:31:24;122.75;;;47.67;;
82022;SDS011;71575;49.908;18.356;2023-12-07T13:34:24;118.70;;;46.10;;
82022;SDS011;71575;49.908;18.356;2023-12-07T13:37:25;116.95;;;43.42;;
82022;SDS011;71575;49.908;18.356;2023-12-07T13:40:26;105.55;;;45.15;;
82022;SDS011;71575;49.908;18.356;2023-12-07T13:43:27;107.85;;;42.05;;
82022;SDS011;71575;49.908;18.356;2023-12-07T13:46:27;107.15;;;42.33;;
82022;SDS011;71575;49.908;18.356;2023-12-07T13:49:28;106.18;;;42.72;;
82022;SDS011;71575;49.908;18.356;2023-12-07T13:52:29;105.68;;;41.47;;
82022;SDS011;71575;49.908;18.356;2023-12-07T13:55:30;105.70;;;39.00;;
82022;SDS011;71575;49.908;18.356;2023-12-07T13:58:31;111.53;;;40.17;;
82022;SDS011;71575;49.908;18.356;2023-12-07T14:01:32;92.35;;;38.28;;
82022;SDS011;71575;49.908;18.356;2023-12-07T14:04:33;102.70;;;37.97;;
82022;SDS011;71575;49.908;18.356;2023-12-07T14:07:34;95.93;;;39.53;;
82022;SDS011;71575;49.908;18.356;2023-12-07T14:10:35;99.72;;;40.47;;
82022;SDS011;71575;49.908;18.356;2023-12-07T14:13:36;101.03;;;38.53;;
82022;SDS011;71575;49.908;18.356;2023-12-07T14:16:36;99.80;;;37.55;;
82022;SDS011;71575;49.908;18.356;2023-12-07T14:19:37;97.18;;;36.63;;
82022;SDS011;71575;49.908;18.356;2023-12-07T14:22:38;100.05;;;38.90;;
82022;SDS011;71575;49.908;18.356;2023-12-07T14:25:39;107.85;;;36.30;;
82022;SDS011;71575;49.908;18.356;2023-12-07T14:28:39;95.55;;;39.38;;
82022;SDS011;71575;49.908;18.356;2023-12-07T14:31:40;105.53;;;40.50;;
82022;SDS011;71575;49.908;18.356;2023-12-07T14:34:41;99.20;;;37.13;;
82022;SDS011;71575;49.908;18.356;2023-12-07T14:37:42;100.75;;;38.58;;
82022;SDS011;71575;49.908;18.356;2023-12-07T14:40:43;105.60;;;39.70;;
82022;SDS011;71575;49.908;18.356;2023-12-07T14:43:43;113.97;;;40.63;;
82022;SDS011;71575;49.908;18.356;2023-12-07T14:46:44;108.45;;;38.92;;
82022;SDS011;71575;49.908;18.356;2023-12-07T14:49:46;109.88;;;41.03;;
82022;SDS011;71575;49.908;18.356;2023-12-07T14:52:46;108.47;;;42.50;;
82022;SDS011;71575;49.908;18.356;2023-12-07T14:55:47;100.05;;;40.92;;
82022;SDS011;71575;49.908;18.356;2023-12-07T14:58:48;107.50;;;43.53;;
82022;SDS011;71575;49.908;18.356;2023-12-07T15:01:48;104.45;;;41.55;;
82022;SDS011;71575;49.908;18.356;2023-12-07T15:04:49;114.85;;;44.17;;
82022;SDS011;71575;49.908;18.356;2023-12-07T15:07:50;101.13;;;42.13;;
82022;SDS011;71575;49.908;18.356;2023-12-07T15:10:51;112.30;;;42.28;;
82022;SDS011;71575;49.908;18.356;2023-12-07T15:13:52;111.40;;;38.88;;
82022;SDS011;71575;49.908;18.356;2023-12-07T15:16:52;101.30;;;38.47;;
82022;SDS011;71575;49.908;18.356;2023-12-07T15:19:53;101.43;;;40.72;;
82022;SDS011;71575;49.908;18.356;2023-12-07T15:22:55;109.70;;;40.97;;
82022;SDS011;71575;49.908;18.356;2023-12-07T15:25:56;106.32;;;41.33;;
82022;SDS011;71575;49.908;18.356;2023-12-07T15:28:58;112.30;;;43.08;;
82022;SDS011;71575;49.908;18.356;2023-12-07T15:31:59;106.72;;;39.65;;
82022;SDS011;71575;49.908;18.356;2023-12-07T15:34:59;106.38;;;40.95;;
82022;SDS011;71575;49.908;18.356;2023-12-07T15:38:00;106.30;;;39.97;;
82022;SDS011;71575;49.908;18.356;2023-12-07T15:41:00;112.90;;;39.50;;
82022;SDS011;71575;49.908;18.356;2023-12-07T15:44:01;103.28;;;41.22;;
82022;SDS011;71575;49.908;18.356;2023-12-07T15:47:02;111.68;;;39.53;;
82022;SDS011;71575;49.908;18.356;2023-12-07T15:50:03;100.40;;;42.03;;
82022;SDS011;71575;49.908;18.356;2023-12-07T15:53:04;110.03;;;41.22;;
82022;SDS011;71575;49.908;18.356;2023-12-07T15:56:04;108.22;;;40.30;;
82022;SDS011;71575;49.908;18.356;2023-12-07T15:59:05;120.45;;;44.17;;
82022;SDS011;71575;49.908;18.356;2023-12-07T16:02:06;119.15;;;41.90;;
82022;SDS011;71575;49.908;18.356;2023-12-07T16:05:07;114.03;;;41.42;;
82022;SDS011;71575;49.908;18.356;2023-12-07T16:08:07;107.80;;;43.05;;
82022;SDS011;71575;49.908;18.356;2023-12-07T16:11:08;108.55;;;41.15;;
82022;SDS011;71575;49.908;18.356;2023-12-07T16:14:09;108.30;;;39.35;;
82022;SDS011;71575;49.908;18.356;2023-12-07T16:17:09;114.07;;;44.17;;
82022;SDS011;71575;49.908;18.356;2023-12-07T16:20:11;105.40;;;38.95;;
82022;SDS011;71575;49.908;18.356;2023-12-07T16:23:11;113.20;;;41.13;;
82022;SDS011;71575;49.908;18.356;2023-12-07T16:26:12;110.40;;;42.33;;
82022;SDS011;71575;49.908;18.356;2023-12-07T16:29:13;111.13;;;39.22;;
82022;SDS011;71575;49.908;18.356;2023-12-07T16:32:13;115.03;;;42.10;;
82022;SDS011;71575;49.908;18.356;2023-12-07T16:35:14;117.25;;;41.85;;
82022;SDS011;71575;49.908;18.356;2023-12-07T16:38:15;115.15;;;41.80;;
82022;SDS011;71575;49.908;18.356;2023-12-07T16:41:15;121.03;;;43.83;;
82022;SDS011;71575;49.908;18.356;2023-12-07T16:44:16;114.78;;;43.92;;
82022;SDS011;71575;49.908;18.356;2023-12-07T16:47:18;115.57;;;44.85;;
82022;SDS011;71575;49.908;18.356;2023-12-07T16:50:19;118.45;;;42.60;;
82022;SDS011;71575;49.908;18.356;2023-12-07T16:53:20;108.35;;;41.10;;
82022;SDS011;71575;49.908;18.356;2023-12-07T16:56:21;106.70;;;43.83;;
82022;SDS011;71575;49.908;18.356;2023-12-07T16:59:22;117.35;;;44.67;;
82022;SDS011;71575;49.908;18.356;2023-12-07T17:02:22;108.20;;;43.28;;
82022;SDS011;71575;49.908;18.356;2023-12-07T17:05:23;113.53;;;42.25;;
82022;SDS011;71575;49.908;18.356;2023-12-07T17:08:24;114.75;;;41.58;;
82022;SDS011;71575;49.908;18.356;2023-12-07T17:11:25;116.13;;;43.83;;
82022;SDS011;71575;49.908;18.356;2023-12-07T17:14:25;122.35;;;42.15;;
82022;SDS011;71575;49.908;18.356;2023-12-07T17:17:26;109.10;;;39.95;;
82022;SDS011;71575;49.908;18.356;2023-12-07T17:20:27;109.40;;;40.20;;
82022;SDS011;71575;49.908;18.356;2023-12-07T17:23:27;112.30;;;42.22;;
82022;SDS011;71575;49.908;18.356;2023-12-07T17:26:28;113.03;;;42.50;;
82022;SDS011;71575;49.908;18.356;2023-12-07T17:29:29;115.13;;;43.75;;
82022;SDS011;71575;49.908;18.356;2023-12-07T17:32:30;107.35;;;44.08;;
82022;SDS011;71575;49.908;18.356;2023-12-07T17:35:30;112.65;;;43.55;;
82022;SDS011;71575;49.908;18.356;2023-12-07T17:38:31;123.18;;;45.53;;
82022;SDS011;71575;49.908;18.356;2023-12-07T17:41:31;116.10;;;44.30;;
82022;SDS011;71575;49.908;18.356;2023-12-07T17:44:32;115.53;;;44.65;;
82022;SDS011;71575;49.908;18.356;2023-12-07T17:47:33;114.63;;;42.45;;
82022;SDS011;71575;49.908;18.356;2023-12-07T17:50:34;117.50;;;43.45;;
82022;SDS011;71575;49.908;18.356;2023-12-07T17:53:34;111.72;;;39.42;;
82022;SDS011;71575;49.908;18.356;2023-12-07T17:56:38;109.50;;;40.60;;
82022;SDS011;71575;49.908;18.356;2023-12-07T17:59:39;109.55;;;38.55;;
82022;SDS011;71575;49.908;18.356;2023-12-07T18:02:40;110.85;;;41.75;;
82022;SDS011;71575;49.908;18.356;2023-12-07T18:05:41;102.75;;;40.33;;
82022;SDS011;71575;49.908;18.356;2023-12-07T18:08:41;111.85;;;41.53;;
82022;SDS011;71575;49.908;18.356;2023-12-07T18:11:43;117.15;;;42.47;;
82022;SDS011;71575;49.908;18.356;2023-12-07T18:14:44;111.28;;;40.75;;
82022;SDS011;71575;49.908;18.356;2023-12-07T18:17:44;116.13;;;40.03;;
82022;SDS011;71575;49.908;18.356;2023-12-07T18:20:45;125.32;;;42.75;;
82022;SDS011;71575;49.908;18.356;2023-12-07T18:23:45;115.60;;;43.15;;
82022;SDS011;71575;49.908;18.356;2023-12-07T18:26:46;114.05;;;40.67;;
82022;SDS011;71575;49.908;18.356;2023-12-07T18:29:47;120.80;;;41.92;;
82022;SDS011;71575;49.908;18.356;2023-12-07T18:32:48;125.85;;;44.10;;
82022;SDS011;71575;49.908;18.356;2023-12-07T18:35:48;119.47;;;44.28;;
82022;SDS011;71575;49.908;18.356;2023-12-07T18:38:49;110.63;;;42.80;;
82022;SDS011;71575;49.908;18.356;2023-12-07T18:41:49;112.68;;;40.53;;
82022;SDS011;71575;49.908;18.356;2023-12-07T18:44:50;121.20;;;44.08;;
82022;SDS011;71575;49.908;18.356;2023-12-07T18:47:53;110.97;;;40.03;;
82022;SDS011;71575;49.908;18.356;2023-12-07T18:50:53;123.50;;;44.03;;
82022;SDS011;71575;49.908;18.356;2023-12-07T18:53:54;117.72;;;43.33;;
82022;SDS011;71575;49.908;18.356;2023-12-07T18:56:55;116.43;;;45.72;;
82022;SDS011;71575;49.908;18.356;2023-12-07T18:59:55;113.25;;;42.13;;
82022;SDS011;71575;49.908;18.356;2023-12-07T19:02:56;116.95;;;40.55;;
82022;SDS011;71575;49.908;18.356;2023-12-07T19:05:57;119.03;;;45.03;;
82022;SDS011;71575;49.908;18.356;2023-12-07T19:08:59;113.22;;;43.22;;
82022;SDS011;71575;49.908;18.356;2023-12-07T19:12:00;114.38;;;44.88;;
82022;SDS011;71575;49.908;18.356;2023-12-07T19:15:00;119.93;;;43.60;;
82022;SDS011;71575;49.908;18.356;2023-12-07T19:18:01;124.25;;;44.80;;
82022;SDS011;71575;49.908;18.356;2023-12-07T19:21:02;121.45;;;42.00;;
82022;SDS011;71575;49.908;18.356;2023-12-07T19:24:02;129.25;;;44.40;;
82022;SDS011;71575;49.908;18.356;2023-12-07T19:27:04;116.50;;;46.33;;
82022;SDS011;71575;49.908;18.356;2023-12-07T19:30:05;127.05;;;44.83;;
82022;SDS011;71575;49.908;18.356;2023-12-07T19:33:06;116.55;;;43.80;;
82022;SDS011;71575;49.908;18.356;2023-12-07T19:36:07;115.10;;;43.50;;
82022;SDS011;71575;49.908;18.356;2023-12-07T19:39:11;124.28;;;43.65;;